Nanyue, China
Current Conditions -  °F | °C
As of 9:00 AM on Sunday 26 Oct 2014 (Local Time) from ZGHA Reporting Station
Clear Clear  
Wind Chill: 70°   Ceiling: Unl
Heat Index: 70°   Visibility: 4mi
Dew Point: 57°   Wind: 4mph
Humidity: 64%   Direction: NA
Pressure: 30.09"   Gusts: NA
Location:  27.3°N, 112.7°E
Report Text: ZGHA 260100Z VRB02MPS 7000 NSC 21/14 Q1019 NOSIG
Loading
Personal Weather Stations






























Interactive Weather Map
Tropical Storm Tracking
New forecast layout! Learn more

10-Day Weather Forecast

Advertisements
Track Severe Weather on mobile